createdAt,value
2018-09-15T00:04:40.619Z,26.00
2018-09-15T00:09:43.884Z,26.70
2018-09-15T00:14:47.228Z,25.97
2018-09-15T00:19:50.688Z,26.57
2018-09-15T00:24:53.952Z,24.90
2018-09-15T00:29:57.237Z,25.57
2018-09-15T00:35:00.516Z,24.63
2018-09-15T00:40:03.796Z,27.23
2018-09-15T00:45:07.083Z,23.97
2018-09-15T00:50:10.375Z,28.40
2018-09-15T00:55:14.177Z,29.20
2018-09-15T01:00:18.614Z,24.20
2018-09-15T01:05:21.892Z,23.90
2018-09-15T01:10:25.470Z,25.13
2018-09-15T01:15:28.750Z,26.10
2018-09-15T01:20:32.133Z,31.97
2018-09-15T01:25:35.413Z,38.67
2018-09-15T01:30:38.720Z,28.83
2018-09-15T01:35:42.004Z,32.27
2018-09-15T01:40:45.266Z,29.30
2018-09-15T01:45:48.551Z,28.57
2018-09-15T01:50:51.846Z,22.87
2018-09-15T01:55:55.113Z,25.77
2018-09-15T02:00:58.400Z,26.17
2018-09-15T02:06:01.708Z,26.30
2018-09-15T02:11:05.009Z,26.60
2018-09-15T02:16:08.287Z,27.33
2018-09-15T02:21:11.606Z,27.87
2018-09-15T02:26:14.919Z,30.10
2018-09-15T02:31:18.219Z,35.00
2018-09-15T02:36:21.558Z,30.17
2018-09-15T02:41:24.811Z,31.47
2018-09-15T02:46:28.106Z,30.27
2018-09-15T02:51:32.548Z,28.00
2018-09-15T02:56:35.859Z,28.37
2018-09-15T03:01:39.152Z,19.87
2018-09-15T03:06:42.434Z,22.27
2018-09-15T03:11:45.712Z,21.80
2018-09-15T03:16:48.996Z,24.37
2018-09-15T03:21:52.383Z,26.83
2018-09-15T03:26:55.662Z,24.97
2018-09-15T03:31:58.931Z,28.33
2018-09-15T03:37:02.257Z,27.90
2018-09-15T03:42:05.561Z,27.67
2018-09-15T03:47:08.899Z,30.47
2018-09-15T03:52:12.180Z,24.27
2018-09-15T03:57:15.485Z,25.43
2018-09-15T04:02:18.771Z,30.00
2018-09-15T04:07:22.065Z,28.93
2018-09-15T04:12:25.373Z,32.97
2018-09-15T04:17:28.642Z,43.50
2018-09-15T04:22:31.958Z,41.13
2018-09-15T04:27:35.346Z,37.00
2018-09-15T04:32:38.622Z,34.27
2018-09-15T04:37:42.025Z,35.07
2018-09-15T04:42:45.029Z,37.37
2018-09-15T04:47:48.563Z,36.27
2018-09-15T04:52:52.076Z,37.67
2018-09-15T04:57:55.354Z,36.27
2018-09-15T05:02:58.545Z,31.70
2018-09-15T05:08:01.864Z,38.27
2018-09-15T05:13:05.159Z,33.37
2018-09-15T05:18:08.442Z,40.23
2018-09-15T05:23:11.732Z,42.30
2018-09-15T05:28:14.991Z,46.87
2018-09-15T05:33:18.607Z,39.67
2018-09-15T05:38:22.259Z,40.80
2018-09-15T05:43:25.546Z,40.77
2018-09-15T05:48:31.458Z,38.87
2018-09-15T05:53:37.101Z,41.33
2018-09-15T05:58:43.879Z,40.43
2018-09-15T06:03:49.487Z,37.63
2018-09-15T06:08:52.848Z,37.60
2018-09-15T06:13:56.223Z,36.40
2018-09-15T06:18:59.500Z,32.03
2018-09-15T06:24:02.810Z,31.30
2018-09-15T06:29:06.097Z,31.10
2018-09-15T06:34:09.371Z,30.33
2018-09-15T06:39:12.701Z,25.73
2018-09-15T06:44:15.932Z,27.23
2018-09-15T06:49:19.234Z,24.47
2018-09-15T06:54:22.882Z,22.43
2018-09-15T06:59:29.356Z,24.17
2018-09-15T07:04:35.652Z,21.50
2018-09-15T07:09:42.477Z,18.33
2018-09-15T07:14:46.067Z,16.83
2018-09-15T07:19:49.362Z,18.73
2018-09-15T07:24:57.532Z,23.97
2018-09-15T07:30:06.193Z,21.73
2018-09-15T07:35:15.958Z,21.87
2018-09-15T07:40:24.201Z,21.97
2018-09-15T07:45:36.499Z,20.80
2018-09-15T07:50:41.185Z,27.73
2018-09-15T07:55:45.027Z,29.30
2018-09-15T08:00:50.343Z,29.80
2018-09-15T08:05:57.557Z,26.13
2018-09-15T08:11:08.954Z,23.23
2018-09-15T08:16:16.863Z,25.20
2018-09-15T08:21:24.932Z,24.43
2018-09-15T08:26:38.103Z,21.47
2018-09-15T08:31:43.505Z,22.30
2018-09-15T08:36:49.457Z,20.23
2018-09-15T08:41:57.282Z,20.30
2018-09-15T08:47:04.689Z,21.40
2018-09-15T08:52:14.720Z,17.40
2018-09-15T08:57:28.044Z,18.93
2018-09-15T09:02:37.648Z,17.83
2018-09-15T09:07:44.338Z,18.63
2018-09-15T09:12:50.302Z,15.93
2018-09-15T09:17:56.768Z,14.83
2018-09-15T09:23:00.557Z,14.35
2018-09-15T09:28:07.339Z,13.30
2018-09-15T09:33:15.312Z,14.07
2018-09-15T09:38:19.649Z,11.33
2018-09-15T09:43:24.512Z,10.73
2018-09-15T09:48:31.770Z,10.70
2018-09-15T09:53:38.005Z,9.80
2018-09-15T09:58:44.336Z,10.85
2018-09-15T10:03:50.359Z,10.47
2018-09-15T10:08:57.001Z,10.90
2018-09-15T10:14:02.180Z,11.45
2018-09-15T10:19:09.351Z,7.80
2018-09-15T10:24:14.428Z,5.45
2018-09-15T10:29:21.272Z,8.48
2018-09-15T10:34:29.766Z,6.22
2018-09-15T10:39:37.769Z,9.63
2018-09-15T10:44:44.033Z,6.08
2018-09-15T10:49:47.482Z,8.53
2018-09-15T10:54:51.709Z,6.72
2018-09-15T10:59:55.528Z,10.03
2018-09-15T11:04:58.994Z,7.40
2018-09-15T11:10:02.438Z,6.22
2018-09-15T11:15:05.782Z,6.92
2018-09-15T11:20:12.450Z,6.87
2018-09-15T11:25:15.827Z,7.20
2018-09-15T11:30:19.089Z,6.10
2018-09-15T11:35:22.377Z,6.27
2018-09-15T11:40:25.619Z,7.90
2018-09-15T11:45:28.886Z,5.80
2018-09-15T11:50:32.151Z,6.05
2018-09-15T11:55:35.422Z,5.93
2018-09-15T12:00:42.742Z,6.80
2018-09-15T12:05:45.991Z,7.20
2018-09-15T12:10:49.238Z,7.57
2018-09-15T12:15:52.544Z,6.97
2018-09-15T12:20:55.806Z,4.97
2018-09-15T12:25:59.100Z,6.33
2018-09-15T12:31:02.355Z,4.30
2018-09-15T12:36:05.754Z,4.65
2018-09-15T12:41:09.025Z,3.58
2018-09-15T12:46:12.307Z,4.17
2018-09-15T12:51:15.577Z,3.42
2018-09-15T12:56:18.847Z,4.03
2018-09-15T13:01:22.111Z,4.92
2018-09-15T13:06:25.465Z,3.12
2018-09-15T13:11:28.710Z,4.67
2018-09-15T13:16:32.028Z,6.08
2018-09-15T13:21:36.125Z,7.08
2018-09-15T13:26:39.398Z,3.77
2018-09-15T13:31:42.740Z,3.67
2018-09-15T13:36:46.039Z,4.92
2018-09-15T13:41:49.319Z,3.70
2018-09-15T13:46:52.653Z,2.90
2018-09-15T13:51:56.072Z,2.65
2018-09-15T13:56:59.608Z,2.70
2018-09-15T14:02:03.074Z,3.35
2018-09-15T14:07:06.456Z,4.28
2018-09-15T14:12:09.485Z,4.85
2018-09-15T14:17:12.503Z,4.00
2018-09-15T14:22:15.828Z,3.60
2018-09-15T14:27:20.806Z,3.10
2018-09-15T14:32:25.422Z,4.10
2018-09-15T14:37:29.396Z,5.05
2018-09-15T14:42:32.669Z,5.17
2018-09-15T14:47:35.948Z,3.40
2018-09-15T14:52:39.774Z,4.70
2018-09-15T14:57:43.045Z,2.60
2018-09-15T15:02:50.823Z,3.02
2018-09-15T15:07:54.349Z,3.98
2018-09-15T15:12:57.601Z,2.35
2018-09-15T15:18:00.879Z,5.22
2018-09-15T15:23:04.160Z,5.95
2018-09-15T15:33:20.336Z,5.20
2018-09-15T15:38:24.356Z,4.87
2018-09-15T15:43:28.676Z,3.02
2018-09-15T15:48:32.157Z,3.80
2018-09-15T15:53:35.446Z,4.15
2018-09-15T15:58:39.185Z,4.83
2018-09-15T16:03:43.392Z,3.90
2018-09-15T16:08:47.094Z,3.47
2018-09-15T16:13:51.279Z,3.30
2018-09-15T16:18:56.385Z,5.35
2018-09-15T16:23:59.762Z,3.52
2018-09-15T16:29:03.339Z,3.72
2018-09-15T16:34:08.349Z,2.90
2018-09-15T16:39:14.325Z,3.45
2018-09-15T16:44:19.283Z,6.53
2018-09-15T16:49:22.908Z,3.53
2018-09-15T16:54:26.251Z,3.10
2018-09-15T16:59:29.773Z,3.23
2018-09-15T17:04:33.648Z,3.37
2018-09-15T17:09:37.059Z,2.77
2018-09-15T17:14:40.881Z,6.63
2018-09-15T17:19:44.631Z,6.47
2018-09-15T17:24:47.795Z,7.33
2018-09-15T17:29:50.813Z,4.13
2018-09-15T17:34:57.105Z,7.07
2018-09-15T17:40:02.208Z,6.23
2018-09-15T17:45:05.617Z,4.60
2018-09-15T17:50:09.350Z,5.27
2018-09-15T17:55:12.643Z,3.10
2018-09-15T18:00:15.944Z,6.80
2018-09-15T18:05:19.306Z,12.63
2018-09-15T18:10:22.604Z,19.97
2018-09-15T18:15:25.877Z,11.13
2018-09-15T18:20:29.148Z,6.30
2018-09-15T18:25:32.401Z,7.33
2018-09-15T18:30:35.683Z,12.90
2018-09-15T18:35:38.992Z,8.37
2018-09-15T18:40:42.253Z,4.77
2018-09-15T18:45:45.510Z,5.30
2018-09-15T18:50:48.863Z,3.83
2018-09-15T18:55:52.080Z,4.80
2018-09-15T19:00:55.346Z,4.73
2018-09-15T19:06:00.033Z,6.17
2018-09-15T19:11:05.365Z,5.40
2018-09-15T19:16:11.242Z,5.50
2018-09-15T19:21:16.609Z,5.60
2018-09-15T19:26:21.138Z,4.90
2018-09-15T19:31:25.719Z,6.63
2018-09-15T19:36:30.523Z,4.60
2018-09-15T19:41:34.959Z,5.20
2018-09-15T19:46:41.170Z,6.07
2018-09-15T19:51:46.577Z,7.57
2018-09-15T19:56:51.868Z,4.53
2018-09-15T20:01:54.933Z,5.37
2018-09-15T20:06:59.373Z,6.23
2018-09-15T20:12:04.743Z,7.20
2018-09-15T20:17:08.552Z,4.13
2018-09-15T20:22:11.636Z,7.13
2018-09-15T20:27:17.157Z,5.53
2018-09-15T20:32:23.070Z,5.50
2018-09-15T20:37:28.441Z,4.97
2018-09-15T20:42:31.844Z,6.67
2018-09-15T20:47:36.368Z,4.30
2018-09-15T20:52:39.699Z,6.07
2018-09-15T20:57:42.969Z,6.27
2018-09-15T21:02:45.994Z,5.17
2018-09-15T21:07:49.279Z,4.63
2018-09-15T21:12:52.605Z,4.40
2018-09-15T21:17:55.892Z,4.70
2018-09-15T21:22:59.154Z,7.00
2018-09-15T21:28:02.439Z,8.17
2018-09-15T21:33:05.545Z,3.80
2018-09-15T21:38:08.825Z,5.83
2018-09-15T21:43:12.176Z,9.33
2018-09-15T21:48:15.937Z,5.07
2018-09-15T21:53:18.939Z,7.00
2018-09-15T21:58:22.376Z,6.90
2018-09-15T22:03:25.379Z,9.83
2018-09-15T22:08:28.670Z,4.47
2018-09-15T22:13:31.669Z,5.17
2018-09-15T22:18:35.029Z,4.50
2018-09-15T22:23:44.823Z,6.57
2018-09-15T22:28:48.099Z,5.33
2018-09-15T22:33:51.492Z,5.47
2018-09-15T22:38:54.754Z,6.23
2018-09-15T22:43:57.769Z,5.00
2018-09-15T22:49:01.115Z,7.77
2018-09-15T22:54:04.380Z,6.23
2018-09-15T22:59:07.648Z,8.60
2018-09-15T23:04:12.895Z,7.50
2018-09-15T23:09:16.183Z,5.73
2018-09-15T23:14:19.451Z,8.50
2018-09-15T23:19:22.729Z,7.47
2018-09-15T23:24:26.003Z,9.63
2018-09-15T23:29:29.267Z,12.40
2018-09-15T23:34:32.577Z,7.10
2018-09-15T23:39:35.851Z,9.73
2018-09-15T23:44:39.227Z,12.87
2018-09-15T23:49:42.500Z,8.07
2018-09-15T23:54:45.505Z,10.27
2018-09-15T23:59:48.778Z,9.83
